Terminal Aerodrome Forecast
Issued by NWS

Home | Current Version | Previous Version | Text Only | Print | Product List | Glossary On
Versions: 1 2 3 4 5 6 7 8 9 10 11 12 13 14 15 16 17 18 19 20 21 22 23 24 25 26 27 28 29
820
FTUS44 KOUN 311752
TAFWWR
TAF
KWWR 311752Z 3118/0118 06009KT P6SM SCT030 BKN180
     FM010200 06004KT P6SM BKN100 PROB30 0103/0109 4SM -TSRA
      OVC025CB
     FM011200 04005KT P6SM BKN015
      AMD NOT SKED=

USA.gov is the U.S. government's official web portal to all federal, state and local government web resources and services.